Time;durP1;ratioP1;P1;durP2;ratioP2;P2;SDS_P1;SDS_P2;PMS_P1;PMS_P2;Temp;Humidity;BMP_temperature;BMP_pressure;BME280_temperature;BME280_humidity;BME280_pressure;Samples;Min_cycle;Max_cycle;Signal;HPM_P1;HPM_P2
2022/09/09 00:01:49;;;;;;;603.65;551.90;;;15.10;99.90;;;15.20;100.00;100043.75;5079352;28;22581;-65
2022/09/09 00:04:37;;;;;;;596.20;544.38;;;15.10;99.90;;;15.24;100.00;100049.91;5104734;28;20220;-66
2022/09/09 00:07:32;;;;;;;597.25;544.35;;;15.10;99.90;;;15.21;100.00;100048.19;5058278;28;20205;-65
2022/09/09 00:10:25;;;;;;;577.33;526.13;;;15.20;99.90;;;15.26;100.00;100045.44;5070931;28;20197;-66
2022/09/09 00:13:15;;;;;;;594.30;541.95;;;15.20;99.90;;;15.22;100.00;100043.72;5080568;28;20227;-66
2022/09/09 00:16:05;;;;;;;599.67;546.83;;;15.10;99.90;;;15.25;100.00;100047.22;5104032;28;20216;-65
2022/09/09 00:19:20;;;;;;;601.17;548.42;;;15.10;99.90;;;15.33;100.00;100061.31;5090033;28;20211;-66
2022/09/09 00:22:15;;;;;;;591.65;540.10;;;15.20;99.90;;;15.29;100.00;100061.38;5074364;28;20235;-66
2022/09/09 00:24:53;;;;;;;589.33;537.83;;;15.20;99.90;;;15.25;100.00;100071.19;5102931;27;20306;-65
2022/09/09 00:27:35;;;;;;;586.35;535.03;;;15.20;99.90;;;15.34;100.00;100075.50;5081021;28;20197;-65
2022/09/09 00:30:22;;;;;;;602.33;550.42;;;15.20;99.90;;;15.30;100.00;100073.78;5074256;28;20208;-65
2022/09/09 00:32:58;;;;;;;595.92;544.38;;;15.20;99.90;;;15.31;100.00;100071.09;5068949;28;20228;-67
2022/09/09 00:35:33;;;;;;;602.60;550.90;;;15.20;99.90;;;15.32;100.00;100080.84;5094871;27;20216;-67
2022/09/09 00:38:18;;;;;;;599.95;548.55;;;15.20;99.90;;;15.30;100.00;100071.13;5087296;28;20215;-66
2022/09/09 00:41:01;;;;;;;600.72;549.47;;;15.20;99.90;;;15.22;100.00;100079.22;5071983;27;20207;-65
2022/09/09 00:43:32;;;;;;;604.60;552.33;;;15.20;99.90;;;15.24;100.00;100085.41;5089129;28;20215;-66
2022/09/09 00:46:25;;;;;;;612.70;560.40;;;15.20;99.90;;;15.24;100.00;100090.75;5082611;28;20220;-65
2022/09/09 00:49:46;;;;;;;595.58;543.65;;;15.20;99.90;;;15.19;100.00;100078.41;5087257;27;20577;-67
2022/09/09 00:52:36;;;;;;;600.53;548.50;;;15.20;99.90;;;15.12;100.00;100090.94;5096680;27;20236;-66
2022/09/09 00:55:22;;;;;;;567.83;519.13;;;15.10;99.90;;;15.16;100.00;100089.09;5091452;27;20568;-65
2022/09/09 00:57:52;;;;;;;592.20;542.38;;;15.10;99.90;;;15.13;100.00;100078.50;5100836;27;20204;-65
2022/09/09 01:00:21;;;;;;;599.60;546.95;;;15.10;99.90;;;15.16;100.00;100094.44;5083185;28;20216;-65
2022/09/09 01:03:23;;;;;;;623.67;570.28;;;15.10;99.90;;;15.17;100.00;100099.72;5066246;27;20730;-65
2022/09/09 01:06:16;;;;;;;601.70;549.55;;;15.10;99.90;;;15.11;100.00;100122.91;5078506;27;20232;-66
2022/09/09 01:08:59;;;;;;;620.05;567.28;;;15.10;99.90;;;15.07;100.00;100119.41;5053048;27;20205;-66
2022/09/09 01:11:50;;;;;;;585.63;534.47;;;15.10;99.90;;;14.95;100.00;100124.91;5068310;27;20232;-65
2022/09/09 01:14:36;;;;;;;614.13;561.05;;;15.00;99.90;;;14.95;100.00;100122.25;5069494;28;20202;-66
2022/09/09 01:17:29;;;;;;;602.13;550.97;;;15.00;99.90;;;14.92;100.00;100125.84;5079324;27;20204;-65
2022/09/09 01:20:19;;;;;;;593.17;541.75;;;15.00;99.90;;;14.89;100.00;100133.88;5066565;27;20207;-65
2022/09/09 01:23:09;;;;;;;593.72;542.13;;;14.90;99.90;;;14.92;100.00;100119.63;5074823;28;20221;-66
2022/09/09 01:25:43;;;;;;;571.95;521.20;;;14.90;99.90;;;15.03;100.00;100131.00;5085071;28;20229;-65
2022/09/09 01:28:27;;;;;;;626.55;570.05;;;14.90;99.90;;;14.98;100.00;100127.53;5057127;28;20200;-67
2022/09/09 01:31:04;;;;;;;609.00;556.97;;;14.90;99.90;;;14.94;100.00;100118.72;5053254;27;20663;-65
2022/09/09 01:33:39;;;;;;;589.50;537.72;;;14.90;99.90;;;14.93;100.00;100129.38;5088023;27;20204;-65
2022/09/09 01:36:35;;;;;;;589.28;538.35;;;14.90;99.90;;;14.92;100.00;100132.94;5096544;27;20215;-65
2022/09/09 01:39:03;;;;;;;600.25;549.00;;;14.90;99.90;;;14.95;100.00;100135.56;5096505;27;20200;-65
2022/09/09 01:41:32;;;;;;;600.53;549.25;;;14.90;99.90;;;15.03;100.00;100150.53;5076011;27;20229;-64
2022/09/09 01:44:05;;;;;;;588.10;536.88;;;14.90;99.90;;;15.06;100.00;100141.63;5085159;27;20239;-65
2022/09/09 01:46:35;;;;;;;594.53;542.80;;;15.00;99.90;;;15.09;100.00;100146.03;5073360;28;20232;-67
2022/09/09 01:49:07;;;;;;;592.28;540.90;;;15.00;99.90;;;15.08;100.00;100149.59;5068635;28;20209;-64
2022/09/09 01:51:37;;;;;;;601.75;550.03;;;15.00;99.90;;;15.12;100.00;100160.19;5086624;28;20224;-65
2022/09/09 01:54:08;;;;;;;583.45;533.55;;;15.00;99.90;;;15.13;100.00;100158.41;5100129;27;20200;-65
2022/09/09 01:57:10;;;;;;;596.55;545.30;;;15.00;99.90;;;15.16;100.00;100161.03;5076392;27;20211;-65
2022/09/09 02:00:08;;;;;;;583.40;532.67;;;15.00;99.90;;;15.14;100.00;100165.50;5112511;27;20201;-64
2022/09/09 02:03:15;;;;;;;592.13;540.08;;;15.00;99.90;;;15.13;100.00;100172.59;5117540;27;20547;-67
2022/09/09 02:06:07;;;;;;;585.03;532.58;;;15.00;99.90;;;15.12;100.00;100173.50;5083008;27;20233;-65
2022/09/09 02:08:52;;;;;;;583.85;532.92;;;15.00;99.90;;;15.13;100.00;100185.03;5088966;27;20211;-65
2022/09/09 02:11:24;;;;;;;592.17;539.85;;;15.00;99.90;;;15.16;100.00;100185.88;5084472;27;21062;-66
2022/09/09 02:14:12;;;;;;;586.70;535.33;;;15.10;99.90;;;15.14;100.00;100177.03;5080326;27;20207;-65
2022/09/09 02:16:56;;;;;;;592.53;540.63;;;15.00;99.90;;;15.18;100.00;100177.88;5064138;28;20205;-66
2022/09/09 02:19:59;;;;;;;586.15;534.63;;;15.10;99.90;;;15.25;100.00;100176.88;5080780;28;20212;-65
2022/09/09 02:22:44;;;;;;;607.63;555.15;;;15.10;99.90;;;15.25;100.00;100160.91;5065578;27;20645;-65
2022/09/09 02:25:19;;;;;;;604.05;552.55;;;15.10;99.90;;;15.23;100.00;100163.56;5103379;27;20663;-66
2022/09/09 02:27:51;;;;;;;601.33;547.85;;;15.10;99.90;;;15.21;100.00;100168.03;5085592;28;20212;-65
2022/09/09 02:30:20;;;;;;;632.67;578.75;;;15.10;99.90;;;15.25;100.00;100172.44;5074081;27;20197;-64
2022/09/09 02:32:58;;;;;;;607.85;555.50;;;15.10;99.90;;;15.29;100.00;100176.81;5087867;27;20238;-65
2022/09/09 02:35:41;;;;;;;593.97;542.55;;;15.10;99.90;;;15.32;100.00;100175.88;5069363;28;20204;-65
2022/09/09 02:38:13;;;;;;;612.05;558.58;;;15.10;99.90;;;15.28;100.00;100172.38;5063264;28;20201;-66
2022/09/09 02:40:50;;;;;;;616.25;563.58;;;15.10;99.90;;;15.27;100.00;100173.28;5064088;27;20300;-65
2022/09/09 02:43:19;;;;;;;612.22;559.63;;;;;;;15.27;100.00;100181.28;5102426;27;20209;-67
2022/09/09 02:46:35;;;;;;;600.47;548.78;;;15.10;99.90;;;15.27;100.00;100175.94;5100881;27;20251;-67
2022/09/09 02:49:10;;;;;;;573.88;522.80;;;15.20;99.90;;;15.21;100.00;100176.03;5094737;27;20566;-64
2022/09/09 02:51:57;;;;;;;611.63;559.38;;;15.10;99.90;;;15.23;100.00;100179.56;5095698;27;20221;-65
2022/09/09 02:54:32;;;;;;;615.58;562.88;;;15.10;99.90;;;15.12;100.00;100184.16;5087977;28;20649;-66
2022/09/09 02:57:25;;;;;;;609.22;556.78;;;15.10;99.90;;;15.11;100.00;100189.50;5066879;27;20208;-65
2022/09/09 02:59:58;;;;;;;594.83;543.22;;;15.00;99.90;;;15.07;100.00;100194.00;5098889;27;20211;-65
2022/09/09 03:02:26;;;;;;;574.17;523.00;;;15.00;99.90;;;15.06;100.00;100197.56;5101249;27;20918;-66
2022/09/09 03:05:01;;;;;;;604.30;551.67;;;14.90;99.90;;;15.03;100.00;100201.13;5104015;27;20208;-65
2022/09/09 03:07:29;;;;;;;608.88;557.05;;;14.90;99.90;;;15.00;100.00;100206.50;5085142;28;20228;-65
2022/09/09 03:09:58;;;;;;;621.90;568.00;;;14.90;99.90;;;14.93;100.00;100199.50;5073824;27;20204;-65
2022/09/09 03:12:27;;;;;;;610.40;558.75;;;14.90;99.90;;;14.94;100.00;100201.25;5061719;27;20224;-66
2022/09/09 03:14:55;;;;;;;613.20;561.05;;;14.80;99.90;;;14.94;100.00;100200.38;5086608;28;20590;-65
2022/09/09 03:17:24;;;;;;;610.50;558.97;;;14.80;99.90;;;14.92;100.00;100207.50;5077902;27;20215;-65
2022/09/09 03:19:54;;;;;;;597.50;545.25;;;14.80;99.90;;;14.85;100.00;100206.69;5086503;27;20216;-65
2022/09/09 03:22:23;;;;;;;597.85;545.90;;;14.80;99.90;;;14.84;100.00;100212.03;5089957;27;20224;-65
2022/09/09 03:24:51;;;;;;;596.30;544.10;;;14.80;99.90;;;14.82;100.00;100211.16;5093091;28;20672;-65
2022/09/09 03:27:19;;;;;;;597.05;545.50;;;14.80;99.90;;;14.88;100.00;100214.66;5074752;27;20230;-65
2022/09/09 03:29:50;;;;;;;611.58;559.33;;;14.70;99.90;;;14.82;100.00;100212.06;5106067;27;20200;-65
2022/09/09 03:32:25;;;;;;;594.97;543.08;;;14.80;99.90;;;14.80;100.00;100223.63;5066418;28;20671;-65
2022/09/09 03:34:56;;;;;;;595.25;543.50;;;14.70;99.90;;;14.76;100.00;100227.22;5087645;28;20212;-67
2022/09/09 03:37:24;;;;;;;600.38;547.88;;;14.70;99.90;;;14.78;100.00;100228.09;5075644;28;20216;-65
2022/09/09 03:39:54;;;;;;;582.90;532.47;;;14.70;99.90;;;14.77;100.00;100226.31;5051027;28;20216;-66
2022/09/09 03:42:23;;;;;;;592.08;539.60;;;14.70;99.90;;;14.69;100.00;100229.94;5072358;28;20228;-65
2022/09/09 03:44:54;;;;;;;594.55;542.28;;;14.70;99.90;;;14.68;100.00;100230.84;5083834;28;20209;-64
2022/09/09 03:47:24;;;;;;;590.90;539.80;;;14.60;99.90;;;14.62;100.00;100232.69;5069725;28;20223;-65
2022/09/09 03:49:57;;;;;;;590.45;538.25;;;14.60;99.90;;;14.63;100.00;100238.00;5080925;28;20201;-65
2022/09/09 03:52:26;;;;;;;598.05;545.83;;;14.60;99.90;;;14.64;100.00;100244.19;5090928;28;20223;-66
2022/09/09 03:54:55;;;;;;;568.92;518.25;;;14.60;99.90;;;14.59;100.00;100232.72;5092885;28;20207;-65
2022/09/09 03:57:23;;;;;;;587.75;535.35;;;14.60;99.90;;;14.60;100.00;100238.03;5103885;28;20234;-65
2022/09/09 03:59:50;;;;;;;580.17;528.55;;;14.50;99.90;;;14.64;100.00;100245.09;5072589;28;20208;-65
2022/09/09 04:02:18;;;;;;;594.05;539.95;;;14.50;99.90;;;14.63;100.00;100250.41;5082948;28;20231;-65
2022/09/09 04:04:47;;;;;;;569.25;517.03;;;14.50;99.90;;;14.71;100.00;100256.53;5072576;28;20212;-65
2022/09/09 04:07:15;;;;;;;579.63;527.72;;;15.40;99.90;;;14.70;100.00;100257.44;5068810;28;20213;-66
2022/09/09 04:09:44;;;;;;;581.30;529.00;;;14.60;99.90;;;14.67;100.00;100258.34;5073404;28;20205;-65
2022/09/09 04:12:14;;;;;;;593.00;539.88;;;14.60;99.90;;;14.69;100.00;100269.88;5047642;27;20231;-65
2022/09/09 04:14:42;;;;;;;580.35;528.08;;;14.60;99.90;;;14.69;100.00;100264.56;5061589;27;20215;-66
2022/09/09 04:17:10;;;;;;;584.35;532.60;;;14.60;99.90;;;14.70;100.00;100262.75;5068083;28;20216;-66
2022/09/09 04:19:38;;;;;;;581.38;529.88;;;14.60;99.90;;;14.74;100.00;100272.47;5063078;28;20201;-66
2022/09/09 04:22:06;;;;;;;581.50;528.75;;;14.60;99.90;;;14.72;100.00;100274.28;5064350;28;20244;-66
2022/09/09 04:24:35;;;;;;;580.30;528.50;;;14.60;99.90;;;14.79;100.00;100278.66;5062204;28;20216;-65
2022/09/09 04:27:03;;;;;;;586.83;534.70;;;14.60;99.90;;;14.81;100.00;100279.50;5066385;27;20244;-65
2022/09/09 04:29:33;;;;;;;607.53;554.60;;;14.70;99.90;;;14.86;100.00;100287.44;5071718;27;20197;-65
2022/09/09 04:32:02;;;;;;;588.60;536.08;;;14.70;99.90;;;14.83;100.00;100284.81;5071996;28;20228;-65
2022/09/09 04:34:31;;;;;;;591.83;539.72;;;14.70;99.90;;;14.83;100.00;100288.34;5086427;27;20220;-65
2022/09/09 04:37:00;;;;;;;604.22;551.00;;;14.70;99.90;;;14.81;100.00;100286.63;5085036;27;20223;-65
2022/09/09 04:39:28;;;;;;;578.97;527.30;;;14.70;99.90;;;14.83;100.00;100288.34;5066908;28;20211;-63
2022/09/09 04:41:58;;;;;;;586.33;533.88;;;14.70;99.90;;;14.78;100.00;100298.19;5072557;28;20225;-64
2022/09/09 04:44:26;;;;;;;589.03;535.75;;;14.70;99.90;;;14.79;100.00;100301.72;5065391;28;20205;-63
2022/09/09 04:46:55;;;;;;;585.15;533.47;;;14.70;99.90;;;14.78;100.00;100291.97;5085246;28;20228;-64
2022/09/09 04:49:23;;;;;;;584.17;531.50;;;14.70;99.90;;;14.70;100.00;100302.69;5069056;28;20208;-63
2022/09/09 04:51:52;;;;;;;605.67;551.45;;;14.60;99.90;;;14.71;100.00;100309.78;5081447;28;20235;-62
2022/09/09 04:54:20;;;;;;;609.65;556.38;;;14.60;99.90;;;14.70;100.00;100318.66;5072859;27;20592;-63
2022/09/09 04:56:50;;;;;;;584.67;532.55;;;14.60;99.90;;;14.70;100.00;100316.88;5078787;27;20208;-63
2022/09/09 04:59:19;;;;;;;584.38;531.70;;;14.60;99.90;;;14.68;100.00;100313.34;5100435;27;20205;-63
2022/09/09 05:01:50;;;;;;;594.15;541.25;;;14.60;99.90;;;14.70;100.00;100313.34;5073299;27;20239;-63
2022/09/09 05:04:19;;;;;;;592.22;539.33;;;14.60;99.90;;;14.70;100.00;100324.00;5090375;27;20207;-63
2022/09/09 05:06:47;;;;;;;605.13;551.85;;;14.60;99.90;;;14.67;100.00;100329.34;5083050;27;20222;-63
2022/09/09 05:09:15;;;;;;;588.15;535.88;;;14.60;99.90;;;14.62;100.00;100331.16;5093790;27;20204;-63
2022/09/09 05:11:45;;;;;;;584.70;532.08;;;14.50;99.90;;;14.61;100.00;100332.94;5073370;27;20224;-63
2022/09/09 05:14:26;;;;;;;585.13;533.38;;;14.50;99.90;;;14.61;100.00;100329.41;5072161;28;20200;-63
2022/09/09 05:16:55;;;;;;;589.80;537.13;;;14.50;99.90;;;14.61;100.00;100338.25;5065120;27;20193;-63
2022/09/09 05:19:24;;;;;;;594.97;541.15;;;14.60;99.90;;;14.65;100.00;100339.13;5088440;27;20569;-63
2022/09/09 05:21:53;;;;;;;580.88;528.58;;;14.50;99.90;;;14.64;100.00;100335.56;5071442;28;20220;-63
2022/09/09 05:24:28;;;;;;;581.58;529.67;;;14.50;99.90;;;14.64;100.00;100343.56;5072667;28;20209;-63
2022/09/09 05:27:00;;;;;;;590.30;537.13;;;14.50;99.90;;;14.70;100.00;100337.28;5073052;28;20221;-62
2022/09/09 05:29:28;;;;;;;585.40;533.80;;;14.60;99.90;;;14.68;100.00;100336.44;5089683;27;20208;-63
2022/09/09 05:31:57;;;;;;;598.83;545.90;;;14.60;99.90;;;14.68;100.00;100333.75;5126523;27;20220;-63
2022/09/09 05:34:25;;;;;;;581.47;529.10;;;14.60;99.90;;;14.64;100.00;100343.56;5084849;28;20220;-63
2022/09/09 05:36:53;;;;;;;579.33;527.55;;;14.50;99.90;;;14.64;100.00;100348.88;5075595;27;20199;-63
2022/09/09 05:39:23;;;;;;;580.92;529.03;;;14.50;99.90;;;14.62;100.00;100350.66;5072210;28;20222;-63
2022/09/09 05:41:51;;;;;;;586.95;535.35;;;15.20;99.90;;;14.66;100.00;100349.75;5067061;28;20228;-63
2022/09/09 05:44:20;;;;;;;601.88;548.92;;;14.50;99.90;;;14.68;100.00;100352.41;5072796;28;20216;-63
2022/09/09 05:46:48;;;;;;;583.15;532.15;;;14.60;99.90;;;14.69;100.00;100357.72;5072197;28;20213;-63
2022/09/09 05:49:16;;;;;;;578.33;527.05;;;14.60;99.90;;;14.78;100.00;100369.16;5087342;28;20212;-63
2022/09/09 05:51:45;;;;;;;578.45;526.75;;;14.60;99.90;;;14.77;100.00;100381.59;5078032;28;20228;-63
2022/09/09 05:54:15;;;;;;;581.72;530.20;;;14.60;99.90;;;14.78;100.00;100382.47;5106714;27;20205;-64
2022/09/09 05:56:49;;;;;;;582.75;530.95;;;14.60;99.90;;;14.86;100.00;100394.81;5091471;27;21512;-62
2022/09/09 05:59:19;;;;;;;581.63;530.00;;;14.60;99.90;;;14.86;100.00;100378.84;5086341;28;20208;-63
2022/09/09 06:01:47;;;;;;;584.10;532.70;;;14.70;99.90;;;14.87;100.00;100388.59;5055883;27;20217;-63
2022/09/09 06:04:31;;;;;;;584.75;531.88;;;;;;;14.92;100.00;100388.56;5060440;28;20223;-63
2022/09/09 06:07:00;;;;;;;586.92;534.35;;;14.70;99.90;;;14.96;100.00;100398.28;5057250;28;20227;-63
2022/09/09 06:09:30;;;;;;;589.03;536.97;;;14.70;99.90;;;15.00;100.00;100395.56;5052756;28;20679;-63
2022/09/09 06:11:58;;;;;;;594.55;541.92;;;14.80;99.90;;;15.01;100.00;100392.00;5102730;27;20228;-63
2022/09/09 06:14:27;;;;;;;595.65;543.45;;;14.80;99.90;;;15.07;100.00;100388.41;5084558;28;20205;-63
2022/09/09 06:16:57;;;;;;;587.58;535.67;;;14.90;99.90;;;15.09;100.00;100394.59;5070165;27;20200;-62
2022/09/09 06:19:30;;;;;;;594.65;542.35;;;14.90;99.90;;;15.11;100.00;100386.59;5089093;27;20223;-62
2022/09/09 06:21:59;;;;;;;574.38;523.47;;;14.90;99.90;;;15.11;100.00;100390.16;5066514;28;20229;-63
2022/09/09 06:24:30;;;;;;;595.75;543.75;;;14.90;99.90;;;15.12;100.00;100391.03;5089862;27;20211;-63
2022/09/09 06:27:00;;;;;;;598.75;546.17;;;15.00;99.90;;;15.18;100.00;100397.16;5069660;27;20209;-63
2022/09/09 06:29:32;;;;;;;589.22;537.65;;;15.00;99.90;;;15.28;100.00;100414.81;5073153;28;20684;-63
2022/09/09 06:32:02;;;;;;;583.17;531.72;;;15.10;99.90;;;15.38;100.00;100429.81;5074383;28;20247;-63
2022/09/09 06:34:31;;;;;;;595.05;542.60;;;15.10;99.90;;;15.35;100.00;100415.66;5070875;27;20213;-63
2022/09/09 06:37:00;;;;;;;591.40;539.45;;;15.20;99.90;;;15.35;100.00;100411.19;5088378;28;20205;-63
2022/09/09 06:39:35;;;;;;;601.38;549.08;;;15.20;99.90;;;15.35;100.00;100411.19;5066108;27;20211;-63
2022/09/09 06:42:03;;;;;;;589.33;538.95;;;15.20;99.90;;;15.36;100.00;100410.28;5094917;28;20228;-63
2022/09/09 06:44:49;;;;;;;604.42;551.15;;;15.20;99.90;;;15.40;100.00;100399.59;5087936;28;20212;-63
2022/09/09 06:47:24;;;;;;;592.40;540.92;;;15.20;99.90;;;15.44;100.00;100406.66;5092529;27;20215;-63
2022/09/09 06:49:53;;;;;;;616.55;561.78;;;15.70;99.90;;;15.45;100.00;100401.31;5075690;27;20196;-63
2022/09/09 06:52:21;;;;;;;616.15;562.90;;;15.30;99.90;;;15.48;100.00;100398.63;5055221;28;20217;-63
2022/09/09 06:54:50;;;;;;;600.90;549.58;;;15.30;99.90;;;15.51;100.00;100393.25;5052044;28;20193;-63
2022/09/09 06:57:18;;;;;;;610.55;558.33;;;15.30;99.90;;;15.73;100.00;100396.59;5069778;27;20629;-63
2022/09/09 07:00:13;;;;;;;619.45;564.10;;;15.40;99.90;;;16.13;100.00;100420.06;5083556;28;20671;-63
2022/09/09 07:02:42;;;;;;;609.40;557.53;;;15.60;99.90;;;16.33;100.00;100413.56;5092087;28;20233;-62
2022/09/09 07:05:11;;;;;;;655.92;599.30;;;15.90;99.90;;;16.44;100.00;100409.84;5062181;27;20245;-63
2022/09/09 07:07:41;;;;;;;623.53;571.70;;;16.00;99.90;;;16.50;100.00;100397.28;5088615;27;20204;-63
2022/09/09 07:10:11;;;;;;;636.88;583.80;;;16.10;99.90;;;16.54;100.00;100384.75;5108825;27;20675;-63
2022/09/09 07:12:40;;;;;;;657.38;602.45;;;16.20;99.90;;;16.59;100.00;100393.56;5096881;27;20236;-64
2022/09/09 07:15:10;;;;;;;647.10;594.05;;;16.30;99.90;;;16.57;100.00;100385.59;5110440;27;20208;-63
2022/09/09 07:17:42;;;;;;;658.30;603.75;;;16.70;99.90;;;16.61;100.00;100381.97;5094201;28;20212;-63
2022/09/09 07:20:10;;;;;;;650.13;596.80;;;16.30;99.90;;;16.62;100.00;100375.72;5089591;28;20205;-63
2022/09/09 07:22:39;;;;;;;659.97;606.67;;;16.40;99.90;;;16.68;100.00;100380.09;5076185;28;20232;-63
2022/09/09 07:25:08;;;;;;;667.10;614.08;;;16.40;99.90;;;16.72;100.00;100380.94;5091096;28;20205;-63
2022/09/09 07:27:37;;;;;;;665.00;611.05;;;16.50;99.90;;;16.82;100.00;100377.19;5070705;27;20204;-63
2022/09/09 07:30:06;;;;;;;673.25;619.75;;;16.50;99.90;;;16.84;100.00;100370.94;5046852;28;20720;-63
2022/09/09 07:32:35;;;;;;;676.60;623.92;;;16.60;99.90;;;16.89;100.00;100360.16;5085747;28;20247;-63
2022/09/09 07:35:03;;;;;;;684.85;630.72;;;16.60;99.90;;;16.97;100.00;100371.63;5070083;28;20282;-63
2022/09/09 07:37:31;;;;;;;692.55;637.60;;;16.70;99.90;;;17.03;100.00;100376.84;5056505;27;20220;-63
2022/09/09 07:40:00;;;;;;;691.40;636.67;;;16.80;99.90;;;17.08;100.00;100371.44;5086158;28;20769;-63
2022/09/09 07:42:30;;;;;;;700.63;645.70;;;16.80;99.90;;;17.12;100.00;100375.81;5081552;28;20611;-63
2022/09/09 07:44:59;;;;;;;716.42;659.97;;;16.90;99.90;;;17.19;100.00;100378.34;5053312;28;20204;-63
2022/09/09 07:47:27;;;;;;;727.75;671.38;;;16.90;99.90;;;17.22;100.00;100391.63;5061771;28;20205;-63
2022/09/09 07:49:58;;;;;;;713.08;657.83;;;17.00;99.90;;;17.13;100.00;100389.13;5071556;28;20244;-63
2022/09/09 07:52:31;;;;;;;701.20;647.50;;;17.00;99.90;;;17.07;100.00;100389.25;5067865;28;20235;-63
2022/09/09 07:55:04;;;;;;;725.25;668.70;;;16.90;99.90;;;17.06;100.00;100394.63;5057213;28;20548;-63
2022/09/09 07:57:32;;;;;;;711.75;658.75;;;16.90;99.90;;;17.01;100.00;100402.72;5091458;28;20201;-63
2022/09/09 08:00:03;;;;;;;726.30;670.92;;;16.90;99.90;;;16.95;100.00;100406.38;5080542;28;20200;-63
2022/09/09 08:02:38;;;;;;;725.13;669.28;;;16.90;99.90;;;16.90;100.00;100434.97;5078709;28;21163;-63
2022/09/09 08:05:08;;;;;;;741.17;683.80;;;16.90;99.90;;;16.87;100.00;100429.63;5064114;28;20209;-63
2022/09/09 08:07:39;;;;;;;731.70;675.40;;;16.80;99.90;;;17.03;100.00;100454.34;5093006;27;20263;-62
2022/09/09 08:10:07;;;;;;;738.67;682.08;;;16.90;99.90;;;17.03;100.00;100451.66;5068193;28;20223;-63
2022/09/09 08:12:37;;;;;;;738.25;681.25;;;17.00;99.90;;;17.14;100.00;100447.00;5060806;28;20251;-63
2022/09/09 08:15:12;;;;;;;728.75;673.28;;;17.00;99.90;;;17.22;100.00;100453.09;5050542;28;20204;-63
2022/09/09 08:17:40;;;;;;;733.45;677.80;;;17.10;99.90;;;17.25;100.00;100446.81;5085914;28;20193;-63
2022/09/09 08:20:09;;;;;;;748.55;691.28;;;17.10;99.90;;;17.30;100.00;100452.97;5078871;27;20208;-63
2022/09/09 08:22:38;;;;;;;738.75;683.05;;;17.20;99.90;;;17.11;100.00;100431.03;5068115;28;20708;-63
2022/09/09 08:25:08;;;;;;;733.72;679.38;;;17.10;99.90;;;17.38;100.00;100459.06;5056167;28;20252;-62
2022/09/09 08:27:37;;;;;;;745.40;689.17;;;17.20;99.90;;;17.74;100.00;100483.38;5034537;28;20570;-62
2022/09/09 08:30:07;;;;;;;755.22;698.58;;;17.30;99.90;;;18.07;100.00;100484.47;5034837;28;20239;-63
2022/09/09 08:32:35;;;;;;;758.85;702.30;;;17.60;99.90;;;18.41;100.00;100482.00;5055765;28;20634;-63
2022/09/09 08:35:06;;;;;;;758.22;701.42;;;17.90;99.90;;;18.20;100.00;100451.19;5087071;28;20575;-63
2022/09/09 08:37:35;;;;;;;760.33;705.53;;;18.00;99.90;;;18.12;100.00;100443.31;5074758;28;20227;-63
2022/09/09 08:40:07;;;;;;;764.90;709.45;;;17.90;99.90;;;18.23;100.00;100435.97;5057165;28;20209;-63
2022/09/09 08:42:46;;;;;;;771.85;715.17;;;18.00;99.90;;;18.63;100.00;100467.22;5075633;28;20232;-63
2022/09/09 08:45:32;;;;;;;769.55;713.35;;;18.20;99.90;;;18.47;100.00;100429.19;5095470;28;20223;-63
2022/09/09 08:48:17;;;;;;;778.17;721.90;;;18.20;99.90;;;18.57;100.00;100432.53;5095959;28;20617;-62
2022/09/09 08:50:49;;;;;;;775.65;719.35;;;18.30;99.90;;;18.50;100.00;100415.72;5066376;28;20235;-63
2022/09/09 08:53:30;;;;;;;782.78;726.35;;;18.30;99.90;;;18.97;100.00;100455.69;5065798;28;20208;-63
2022/09/09 08:56:09;;;;;;;790.88;734.03;;;18.50;99.90;;;19.42;100.00;100442.88;5080030;28;20211;-62
2022/09/09 08:58:53;;;;;;;789.53;733.40;;;18.90;99.90;;;19.09;100.00;100388.38;5083887;28;20201;-63
2022/09/09 09:02:14;;;;;;;791.45;735.90;;;19.00;99.90;;;19.14;100.00;100399.84;5063701;27;20225;-62
2022/09/09 09:05:13;;;;;;;814.15;756.20;;;18.90;99.90;;;18.77;100.00;100357.06;5072402;28;20267;-63
2022/09/09 09:07:56;;;;;;;811.67;753.03;;;18.80;99.90;;;18.70;100.00;100358.13;5072187;27;20213;-63
2022/09/09 09:11:00;;;;;;;824.72;765.13;;;18.70;99.90;;;18.67;100.00;100385.00;5083623;27;20239;-64
2022/09/09 09:13:41;;;;;;;807.53;750.80;;;18.60;99.90;;;18.62;100.00;100362.81;5069856;27;20208;-63
2022/09/09 09:16:26;;;;;;;804.33;747.67;;;18.60;99.90;;;18.44;100.00;100369.47;5087100;28;20192;-63
2022/09/09 09:18:54;;;;;;;803.95;748.20;;;18.50;99.90;;;18.46;100.00;100381.00;5084689;28;20598;-63
2022/09/09 09:22:10;;;;;;;827.42;768.33;;;18.50;99.90;;;18.61;100.00;100393.16;5073694;27;20225;-63
2022/09/09 09:24:57;;;;;;;815.10;757.55;;;18.60;99.90;;;18.52;100.00;100356.75;5015887;28;20211;-63
2022/09/09 09:27:43;;;;;;;806.03;749.42;;;18.60;99.90;;;18.64;100.00;100385.06;5053230;27;20575;-63
2022/09/09 09:30:20;;;;;;;810.03;753.20;;;18.60;99.90;;;18.52;100.00;100367.47;5105465;27;20219;-63
2022/09/09 09:33:26;;;;;;;808.53;752.08;;;18.50;99.90;;;18.50;100.00;100372.88;5098203;27;20361;-63
2022/09/09 09:35:54;;;;;;;799.60;744.35;;;19.30;99.90;;;18.50;100.00;100383.56;5086952;28;20575;-63
2022/09/09 09:38:26;;;;;;;845.40;784.38;;;18.50;99.90;;;18.54;100.00;100377.22;5035817;28;20549;-63
2022/09/09 09:41:14;;;;;;;829.05;770.30;;;18.60;99.90;;;18.70;100.00;100393.84;5039563;27;20233;-63
2022/09/09 09:43:54;;;;;;;832.13;772.78;;;18.70;99.90;;;18.87;100.00;100404.13;5045337;27;20213;-64
2022/09/09 09:46:26;;;;;;;813.33;756.15;;;18.80;99.90;;;18.98;100.00;100411.91;5060502;28;20204;-64
2022/09/09 09:49:08;;;;;;;817.97;760.47;;;18.90;99.90;;;18.74;100.00;100382.13;5084432;27;20212;-63
2022/09/09 09:51:37;;;;;;;813.90;757.25;;;18.80;99.90;;;18.81;100.00;100388.22;5067531;28;20231;-63
2022/09/09 09:54:13;;;;;;;823.58;765.85;;;18.90;99.90;;;18.91;100.00;100403.13;5071515;27;20197;-62
2022/09/09 09:56:43;;;;;;;818.00;761.83;;;18.90;99.90;;;19.10;100.00;100415.13;5083140;28;20204;-64
2022/09/09 09:59:34;;;;;;;828.97;771.38;;;19.00;99.90;;;19.67;100.00;100433.31;5076920;28;20201;-64
2022/09/09 10:02:25;;;;;;;824.13;767.67;;;19.20;99.90;;;20.32;100.00;100424.22;5099995;27;20229;-64
2022/09/09 10:05:17;;;;;;;839.70;780.33;;;19.70;99.90;;;20.34;100.00;100374.03;5090216;28;20668;-64
2022/09/09 10:08:20;;;;;;;832.08;774.58;;;20.00;99.90;;;20.61;100.00;100357.03;5085818;28;20200;-64
2022/09/09 10:11:48;;;;;;;844.38;786.40;;;20.30;99.90;;;20.67;100.00;100338.03;5091791;27;20247;-65
2022/09/09 10:14:37;;;;;;;846.72;788.80;;;20.30;99.90;;;20.69;100.00;100354.09;5088055;28;20213;-65
2022/09/09 10:17:32;;;;;;;861.15;802.70;;;20.40;99.90;;;20.63;100.00;100332.81;5078399;27;20216;-64
2022/09/09 10:20:12;;;;;;;870.50;811.53;;;20.50;99.90;;;21.02;100.00;100360.16;5097501;27;20664;-64